Time;durP1;ratioP1;P1;durP2;ratioP2;P2;SDS_P1;SDS_P2;PMS_P1;PMS_P2;Temp;Humidity;BMP_temperature;BMP_pressure;BME280_temperature;BME280_humidity;BME280_pressure;Samples;Min_cycle;Max_cycle;Signal;HPM_P1;HPM_P2
2023/05/19 00:02:38;;;;;;;10.52;4.13;;;;;;;7.19;100.00;102907.78;4996820;28;21885;-79
2023/05/19 00:05:23;;;;;;;10.73;4.18;;;;;;;7.21;100.00;102913.06;4979588;28;22019;-80
2023/05/19 00:08:09;;;;;;;8.10;4.22;;;;;;;7.20;100.00;102901.63;4992721;28;20060;-80
2023/05/19 00:10:56;;;;;;;7.75;4.15;;;;;;;7.21;100.00;102902.53;4967046;28;20046;-80
2023/05/19 00:13:41;;;;;;;11.15;4.60;;;;;;;7.21;100.00;102902.53;4991580;28;20061;-79
2023/05/19 00:16:26;;;;;;;7.70;4.60;;;;;;;7.20;100.00;102895.50;4993101;28;20477;-79
2023/05/19 00:19:11;;;;;;;8.98;4.28;;;;;;;7.20;100.00;102892.88;4979777;28;20060;-79
2023/05/19 00:21:55;;;;;;;9.85;4.25;;;;;;;7.19;100.00;102889.34;4996321;28;20076;-80
2023/05/19 00:24:39;;;;;;;11.45;4.78;;;;;;;7.18;100.00;102891.97;4978457;28;20048;-80
2023/05/19 00:27:23;;;;;;;8.07;4.45;;;;;;;7.16;100.00;102893.72;4994007;28;21910;-80
2023/05/19 00:30:07;;;;;;;9.27;4.93;;;;;;;7.17;100.00;102888.47;4978233;28;20052;-80
2023/05/19 00:32:51;;;;;;;10.82;5.05;;;;;;;7.18;100.00;102884.06;4979539;28;20064;-80
2023/05/19 00:35:35;;;;;;;8.88;4.57;;;;;;;7.19;100.00;102885.81;4992392;28;20068;-81
2023/05/19 00:38:19;;;;;;;11.25;4.60;;;;;;;7.18;100.00;102881.44;4993409;28;20126;-80
2023/05/19 00:41:07;;;;;;;8.68;4.22;;;;;;;7.19;100.00;102885.81;4980706;28;20855;-80
2023/05/19 00:43:51;;;;;;;7.68;4.25;;;;;;;7.19;100.00;102888.44;4977834;28;20072;-80
2023/05/19 00:46:36;;;;;;;8.60;4.53;;;;;;;7.17;100.00;102884.94;4978025;28;20072;-80
2023/05/19 00:49:23;;;;;;;10.27;4.20;;;;;;;7.19;100.00;102878.81;4994138;28;20052;-81
2023/05/19 00:52:07;;;;;;;8.48;4.45;;;;;;;7.19;100.00;102883.19;4994893;28;20056;-80
2023/05/19 00:54:52;;;;;;;9.10;4.65;;;;;;;7.19;100.00;102884.06;4994339;28;20119;-80
2023/05/19 00:57:36;;;;;;;9.80;4.53;;;;;;;7.22;100.00;102887.59;4992771;28;20456;-81
2023/05/19 01:00:20;;;;;;;9.32;4.78;;;;;;;7.24;100.00;102880.59;4963882;28;20048;-80
2023/05/19 01:03:09;;;;;;;10.85;4.72;;;;;;;7.24;100.00;102885.84;4993228;28;20126;-80
2023/05/19 01:05:53;;;;;;;10.63;4.22;;;;;;;7.22;100.00;102884.94;4963442;28;20133;-79
2023/05/19 01:08:38;;;;;;;8.57;4.88;;;;;;;7.19;100.00;102876.16;4993529;28;20043;-80
2023/05/19 01:11:22;;;;;;;9.60;4.20;;;;;;;7.20;100.00;102875.28;4991471;28;20057;-80
2023/05/19 01:14:06;;;;;;;8.60;4.28;;;;;;;7.20;100.00;102875.28;4991273;28;21302;-80
2023/05/19 01:17:13;;;;;;;10.48;4.43;;;;;;;7.19;100.00;102875.28;4979551;28;20053;-80
2023/05/19 01:20:15;;;;;;;9.38;4.28;;;;;;;7.19;100.00;102878.81;4978377;28;20139;-80
2023/05/19 01:23:23;;;;;;;11.27;4.28;;;;;;;7.18;100.00;102870.91;4994077;28;20139;-82
2023/05/19 01:26:06;;;;;;;10.07;4.38;;;;;;;7.17;100.00;102871.78;4978895;28;20048;-80
2023/05/19 01:29:09;;;;;;;8.52;4.57;;;;;;;7.14;100.00;102862.13;4993336;28;20057;-80
2023/05/19 01:31:58;;;;;;;11.07;4.40;;;;;;;7.14;100.00;102861.25;4990917;28;20099;-79
2023/05/19 01:34:45;;;;;;;10.32;4.45;;;;;;;7.12;100.00;102855.97;4978835;28;20173;-80
2023/05/19 01:37:29;;;;;;;7.07;4.78;;;;;;;7.13;100.00;102856.88;4966451;28;21033;-80
2023/05/19 01:40:14;;;;;;;8.77;4.55;;;;;;;7.11;100.00;102851.59;4993532;28;20192;-81
2023/05/19 01:43:00;;;;;;;9.57;4.20;;;;;;;7.09;100.00;102855.97;4982174;28;20041;-80
2023/05/19 01:45:44;;;;;;;8.70;4.22;;;;;;;7.07;100.00;102862.97;4977479;28;20108;-81
2023/05/19 01:48:32;;;;;;;7.63;4.47;;;;;;;7.05;100.00;102860.38;4991275;28;20045;-81
2023/05/19 01:51:16;;;;;;;10.18;4.47;;;;;;;7.05;100.00;102857.72;4994130;28;20761;-81
2023/05/19 01:54:00;;;;;;;10.38;4.28;;;;;;;7.05;100.00;102849.84;4995181;28;20116;-82
2023/05/19 01:56:47;;;;;;;9.77;4.18;;;;;;;7.07;100.00;102844.53;4977476;28;20064;-79
2023/05/19 02:00:08;;;;;;;12.57;4.40;;;;;;;7.08;100.00;102838.38;4997032;28;20069;-80
2023/05/19 02:02:53;;;;;;;11.40;3.97;;;;;;;7.08;100.00;102835.75;4970359;28;20044;-80
2023/05/19 02:05:45;;;;;;;6.60;4.25;;;;;;;7.07;100.00;102845.44;4995937;28;20088;-80
2023/05/19 02:08:41;;;;;;;9.93;3.95;;;;;;;7.07;100.00;102841.91;4992883;28;20077;-79
2023/05/19 02:11:31;;;;;;;7.55;3.97;;;;;;;7.07;100.00;102834.00;4978758;28;20480;-80
2023/05/19 02:15:01;;;;;;;9.07;3.88;;;;;;;7.06;100.00;102835.78;4992999;28;20543;-78
2023/05/19 02:17:47;;;;;;;9.05;3.80;;;;;;;7.06;100.00;102829.63;4996401;28;20064;-79
2023/05/19 02:20:31;;;;;;;7.20;3.78;;;;;;;7.05;100.00;102828.75;4980126;28;20064;-78
2023/05/19 02:23:15;;;;;;;8.98;3.97;;;;;;;7.05;100.00;102828.75;4993764;28;20076;-79
2023/05/19 02:25:59;;;;;;;10.68;4.00;;;;;;;7.06;100.00;102826.97;4997157;28;21006;-79
2023/05/19 02:28:43;;;;;;;10.50;4.10;;;;;;;7.09;100.00;102832.28;4978684;28;20748;-79
2023/05/19 02:31:28;;;;;;;7.10;3.65;;;;;;;7.11;100.00;102826.97;4996230;28;20111;-79
2023/05/19 02:34:12;;;;;;;12.68;4.03;;;;;;;7.12;100.00;102829.63;4967295;28;20048;-80
2023/05/19 02:36:56;;;;;;;9.88;3.92;;;;;;;7.12;100.00;102821.72;4982491;28;20615;-81
2023/05/19 02:39:41;;;;;;;8.90;3.67;;;;;;;7.12;100.00;102821.72;4995675;28;20578;-80
2023/05/19 02:42:25;;;;;;;8.88;3.75;;;;;;;7.10;100.00;102819.97;4995281;28;21984;-80
2023/05/19 02:45:09;;;;;;;12.45;4.00;;;;;;;7.08;100.00;102817.31;4965193;28;21060;-80
2023/05/19 02:47:53;;;;;;;6.38;3.60;;;;;;;7.09;100.00;102821.75;4996612;28;20061;-80
2023/05/19 02:50:38;;;;;;;9.70;3.65;;;;;;;7.08;100.00;102819.94;4982208;28;20571;-80
2023/05/19 02:53:22;;;;;;;9.05;3.38;;;;;;;7.09;100.00;102818.22;4992333;28;20564;-80
2023/05/19 02:56:06;;;;;;;9.30;3.88;;;;;;;7.09;100.00;102819.09;4992500;28;20460;-80
2023/05/19 02:58:51;;;;;;;6.22;3.45;;;;;;;7.06;100.00;102824.34;4993284;28;20120;-79
2023/05/19 03:01:36;;;;;;;7.03;3.30;;;;;;;7.08;100.00;102822.59;4964121;28;20620;-80
2023/05/19 03:04:20;;;;;;;8.10;3.83;;;;;;;7.07;100.00;102813.81;4989951;28;20057;-80
2023/05/19 03:07:05;;;;;;;4.80;3.25;;;;;;;7.06;100.00;102811.19;4981658;28;20048;-80
2023/05/19 03:09:49;;;;;;;8.30;3.17;;;;;;;7.10;100.00;102804.16;4993626;28;20532;-80
2023/05/19 03:12:33;;;;;;;9.95;3.63;;;;;;;7.13;100.00;102799.78;4993932;28;20044;-80
2023/05/19 03:15:18;;;;;;;7.32;3.42;;;;;;;7.14;100.00;102812.06;4993866;28;20047;-80
2023/05/19 03:18:02;;;;;;;8.63;3.53;;;;;;;7.15;100.00;102803.28;4980433;28;20104;-80
2023/05/19 03:20:46;;;;;;;9.57;3.95;;;;;;;7.17;100.00;102806.81;4994329;28;20057;-80
2023/05/19 03:23:30;;;;;;;6.05;3.30;;;;;;;7.18;100.00;102813.84;4991968;28;20065;-81
2023/05/19 03:26:14;;;;;;;10.95;4.03;;;;;;;7.21;100.00;102812.97;4993149;28;20044;-80
2023/05/19 03:28:58;;;;;;;9.23;3.67;;;;;;;7.23;100.00;102816.47;4980187;28;20068;-80
2023/05/19 03:31:42;;;;;;;7.90;4.47;;;;;;;7.28;100.00;102819.09;4978247;28;20056;-80
2023/05/19 03:34:26;;;;;;;8.57;3.72;;;;;;;7.29;100.00;102812.94;4993924;28;20052;-81
2023/05/19 03:37:11;;;;;;;9.93;3.92;;;;;;;7.31;100.00;102816.47;4979021;28;20159;-81
2023/05/19 03:39:56;;;;;;;14.82;4.65;;;;;;;7.34;100.00;102808.56;4980011;28;20044;-80
2023/05/19 03:42:40;;;;;;;7.20;3.75;;;;;;;7.36;100.00;102808.56;4993524;28;20049;-80
2023/05/19 03:45:24;;;;;;;7.80;3.60;;;;;;;7.36;100.00;102806.81;4988905;28;20079;-81
2023/05/19 03:48:08;;;;;;;7.82;3.45;;;;;;;7.37;100.00;102807.69;4993953;28;20092;-81
2023/05/19 03:50:53;;;;;;;13.70;4.70;;;;;;;7.37;100.00;102807.69;4986273;28;20048;-80
2023/05/19 03:53:37;;;;;;;10.55;4.00;;;;;;;7.37;100.00;102807.69;4994607;28;20127;-80
2023/05/19 03:56:23;;;;;;;12.88;4.60;;;;;;;7.36;100.00;102809.44;4995073;28;20132;-81
2023/05/19 03:59:11;;;;;;;11.65;3.90;;;;;;;7.36;100.00;102809.44;4991266;28;20040;-80
2023/05/19 04:01:56;;;;;;;10.05;4.35;;;;;;;7.36;100.00;102809.44;4978337;28;20199;-79
2023/05/19 04:04:40;;;;;;;10.95;4.28;;;;;;;7.37;100.00;102808.56;4992728;28;20056;-79
2023/05/19 04:07:24;;;;;;;8.77;3.80;;;;;;;7.36;100.00;102801.53;4991150;28;20044;-80
2023/05/19 04:10:09;;;;;;;10.85;4.30;;;;;;;7.36;100.00;102800.66;4992438;28;20221;-78
2023/05/19 04:12:56;;;;;;;8.40;4.18;;;;;;;7.36;100.00;102803.28;4992449;28;20053;-80
2023/05/19 04:15:40;;;;;;;9.25;4.03;;;;;;;7.34;100.00;102806.81;4994160;28;20187;-79
2023/05/19 04:18:24;;;;;;;8.02;3.90;;;;;;;7.37;100.00;102812.94;4978676;28;20503;-79
2023/05/19 04:21:08;;;;;;;9.25;4.20;;;;;;;7.38;100.00;102815.59;4977429;28;20076;-80
2023/05/19 04:23:52;;;;;;;11.57;4.13;;;;;;;7.41;100.00;102806.81;4992633;28;20131;-80
2023/05/19 04:26:37;;;;;;;11.52;4.10;;;;;;;7.42;100.00;102809.41;4990538;28;20063;-80
2023/05/19 04:29:22;;;;;;;12.25;4.13;;;;;;;7.42;100.00;102809.41;4976350;28;20131;-80
2023/05/19 04:32:07;;;;;;;8.43;4.15;;;;;;;7.44;100.00;102810.31;4965545;28;20053;-80
2023/05/19 04:34:51;;;;;;;9.35;4.20;;;;;;;7.44;100.00;102810.31;4977585;28;20053;-80
2023/05/19 04:37:37;;;;;;;9.85;4.20;;;;;;;7.45;100.00;102809.44;4993191;28;20072;-79
2023/05/19 04:40:22;;;;;;;10.68;3.97;;;;;;;7.47;100.00;102815.56;4977576;28;20096;-78
2023/05/19 04:43:08;;;;;;;6.95;3.80;;;;;;;7.49;100.00;102812.94;4975115;28;20396;-79
2023/05/19 04:45:52;;;;;;;9.48;4.30;;;;;;;7.51;100.00;102811.19;4978367;28;20471;-79
2023/05/19 04:48:36;;;;;;;11.98;4.40;;;;;;;7.54;100.00;102815.56;4979094;28;21093;-79
2023/05/19 04:51:20;;;;;;;10.93;3.97;;;;;;;7.55;100.00;102823.47;4975230;28;20053;-79
2023/05/19 04:54:04;;;;;;;10.10;4.10;;;;;;;7.60;100.00;102820.84;4978343;28;20519;-79
2023/05/19 04:56:48;;;;;;;7.53;4.10;;;;;;;7.64;100.00;102819.97;4993427;28;20045;-79
2023/05/19 04:59:32;;;;;;;9.48;3.83;;;;;;;7.71;100.00;102829.63;4991492;28;20128;-79
2023/05/19 05:02:16;;;;;;;5.30;3.53;;;;;;;7.79;100.00;102828.72;4991835;28;20104;-79
2023/05/19 05:05:00;;;;;;;8.48;4.15;;;;;;;7.87;100.00;102826.94;4992621;28;20196;-79
2023/05/19 05:07:44;;;;;;;7.53;3.88;;;;;;;7.94;100.00;102835.69;4994570;28;20150;-79
2023/05/19 05:10:28;;;;;;;9.73;4.60;;;;;;;8.04;100.00;102823.38;4991251;28;20084;-79
2023/05/19 05:13:13;;;;;;;10.60;4.32;;;;;;;8.12;100.00;102825.09;4991185;28;20076;-79
2023/05/19 05:15:58;;;;;;;8.55;4.07;;;;;;;8.20;100.00;102832.13;4992366;28;20134;-79
2023/05/19 05:18:42;;;;;;;11.98;5.18;;;;;;;8.31;100.00;102834.72;4980052;28;20040;-79
2023/05/19 05:21:27;;;;;;;9.90;4.10;;;;;;;8.38;100.00;102834.69;4977462;28;20208;-79
2023/05/19 05:24:12;;;;;;;8.20;4.40;;;;;;;8.49;100.00;102826.72;4976118;28;20152;-79
2023/05/19 05:26:57;;;;;;;10.55;4.30;;;;;;;8.61;100.00;102831.09;4993992;28;20061;-79
2023/05/19 05:29:42;;;;;;;11.48;4.40;;;;;;;8.74;100.00;102839.84;4979549;28;20172;-80
2023/05/19 05:32:26;;;;;;;8.07;4.85;;;;;;;8.91;100.00;102833.56;4979671;28;21013;-79
2023/05/19 05:35:10;;;;;;;12.20;4.32;;;;;;;9.04;100.00;102843.16;4967815;28;20056;-80
2023/05/19 05:37:55;;;;;;;8.77;4.07;;;;;;;9.23;100.00;102837.75;4991925;28;20632;-80
2023/05/19 05:40:39;;;;;;;9.43;4.20;;;;;;;9.39;100.00;102849.06;4994481;28;20107;-80
2023/05/19 05:43:23;;;;;;;10.60;4.40;;;;;;;9.58;100.00;102849.78;4981606;28;20148;-80
2023/05/19 05:46:07;;;;;;;8.88;4.50;;;;;;;9.71;100.00;102836.44;4994351;28;20180;-81
2023/05/19 05:48:52;;;;;;;9.98;4.25;;;;;;;9.83;100.00;102844.25;4992587;28;20056;-80
2023/05/19 05:51:36;;;;;;;11.57;4.38;;;;;;;9.97;100.00;102835.28;4995042;28;20305;-80
2023/05/19 05:54:21;;;;;;;9.60;4.18;;;;;;;10.15;100.00;102835.06;4996858;28;20562;-80
2023/05/19 05:57:06;;;;;;;7.78;3.85;;;;;;;10.29;100.00;102836.66;4983226;28;20643;-81
2023/05/19 05:59:50;;;;;;;8.25;3.50;;;;;;;10.42;100.00;102838.28;4995841;28;20061;-80
2023/05/19 06:02:35;;;;;;;6.85;3.45;;;;;;;10.55;100.00;102839.03;4997743;28;20497;-78
2023/05/19 06:05:19;;;;;;;9.00;3.83;;;;;;;10.77;100.00;102843.13;4981483;28;20060;-80
2023/05/19 06:08:03;;;;;;;8.27;3.45;;;;;;;10.98;100.00;102832.25;4981740;28;20035;-78
2023/05/19 06:10:47;;;;;;;11.15;4.55;;;;;;;11.21;100.00;102838.94;4993920;28;20788;-78
2023/05/19 06:13:31;;;;;;;7.75;3.63;;;;;;;11.38;100.00;102837.78;4981750;28;20080;-77
2023/05/19 06:16:15;;;;;;;7.90;3.45;;;;;;;11.57;100.00;102832.16;4998913;28;20152;-77
2023/05/19 06:18:59;;;;;;;5.70;3.55;;;;;;;11.81;100.00;102844.97;4994846;28;20072;-78
2023/05/19 06:21:43;;;;;;;7.72;3.67;;;;;;;11.95;100.00;102839.38;4996116;28;20111;-79
2023/05/19 06:24:27;;;;;;;5.85;2.97;;;;;;;12.14;100.00;102843.53;4959479;28;20091;-78
2023/05/19 06:27:12;;;;;;;9.52;3.30;;;;;;;12.37;100.00;102845.69;4995613;28;20144;-78
2023/05/19 06:29:56;;;;;;;9.32;3.65;;;;;;;12.57;100.00;102841.72;4995377;28;20198;-78
2023/05/19 06:32:40;;;;;;;7.55;3.22;;;;;;;12.71;100.00;102842.31;4995269;28;20103;-78
2023/05/19 06:35:24;;;;;;;5.88;3.28;;;;;;;12.87;100.00;102847.25;4980826;28;20400;-78
2023/05/19 06:38:11;;;;;;;7.90;3.05;;;;;;;12.96;100.00;102846.19;4979621;28;20081;-78
2023/05/19 06:40:55;;;;;;;9.30;3.53;;;;;;;13.13;100.00;102854.59;4978173;28;20404;-77
2023/05/19 06:43:39;;;;;;;8.73;3.38;;;;;;;13.27;100.00;102851.63;4996372;28;20179;-77
2023/05/19 06:46:23;;;;;;;4.38;2.80;;;;;;;13.48;100.00;102854.69;4963513;28;20065;-78
2023/05/19 06:49:07;;;;;;;7.57;3.08;;;;;;;13.62;100.00;102854.31;4994329;28;20068;-79
2023/05/19 06:51:51;;;;;;;4.93;3.08;;;;;;;13.69;100.00;102857.69;4981021;28;20690;-76
2023/05/19 06:54:35;;;;;;;4.53;2.78;;;;;;;13.81;100.00;102859.16;4993463;28;20088;-78
2023/05/19 06:57:20;;;;;;;5.32;2.70;;;;;;;13.89;100.00;102865.13;4991808;28;20045;-77
2023/05/19 07:00:08;;;;;;;4.45;2.85;;;;;;;14.07;100.00;102865.53;4994637;28;20546;-77
2023/05/19 07:02:52;;;;;;;4.25;2.85;;;;;;;14.28;100.00;102865.84;4995568;28;20048;-77
2023/05/19 07:05:36;;;;;;;3.40;2.10;;;;;;;14.44;100.00;102860.94;4988854;28;20131;-77
2023/05/19 07:08:20;;;;;;;4.72;2.40;;;;;;;14.55;100.00;102857.97;4995532;28;20121;-78
2023/05/19 07:11:04;;;;;;;4.38;2.17;;;;;;;14.76;100.00;102857.31;4995817;28;20138;-78
2023/05/19 07:13:48;;;;;;;5.40;2.40;;;;;;;14.88;100.00;102856.06;4997761;28;20033;-78
2023/05/19 07:16:33;;;;;;;3.97;1.90;;;;;;;15.00;100.00;102854.81;4982541;28;22093;-77
2023/05/19 07:19:18;;;;;;;5.75;1.95;;;;;;;15.10;100.00;102854.50;4992817;28;20863;-79
2023/05/19 07:22:02;;;;;;;5.18;2.20;;;;;;;15.28;100.00;102850.34;4995805;28;20424;-78
2023/05/19 07:24:46;;;;;;;2.75;2.13;;;;;;;15.41;100.00;102853.50;4995541;28;20060;-81
2023/05/19 07:27:30;;;;;;;4.95;2.20;;;;;;;15.40;100.00;102857.06;4979516;28;20066;-85
2023/05/19 07:30:14;;;;;;;4.65;2.05;;;;;;;15.52;100.00;102856.63;4980521;28;20057;-81
2023/05/19 07:32:58;;;;;;;3.70;2.40;;;;;;;15.59;100.00;102858.16;5001118;28;20053;-92
2023/05/19 07:35:44;;;;;;;5.15;2.05;;;;;;;15.48;98.32;102853.22;4986246;28;20044;-92
2023/05/19 07:38:30;;;;;;;7.03;2.30;;;;;;;15.48;96.21;102849.69;4973050;28;20049;-89
2023/05/19 07:41:14;;;;;;;4.20;2.10;;;;;;;15.45;98.09;102844.44;4994947;28;20040;-90
2023/05/19 07:43:58;;;;;;;3.65;2.10;;;;;;;15.57;99.07;102846.69;4986495;28;20056;-88
2023/05/19 07:46:42;;;;;;;5.45;2.15;;;;;;;15.65;98.13;102856.22;5000426;28;21991;-93
2023/05/19 07:49:26;;;;;;;4.90;1.90;;;;;;;15.75;97.40;102852.31;5001525;28;21017;-82
2023/05/19 07:52:10;;;;;;;3.17;1.95;;;;;;;15.86;94.88;102854.59;4971791;28;20590;-82
2023/05/19 07:54:55;;;;;;;3.58;1.60;;;;;;;15.84;90.48;102857.31;4993896;28;20084;-83
2023/05/19 07:57:38;;;;;;;4.13;1.98;;;;;;;15.75;92.45;102857.66;4977190;28;20076;-80
2023/05/19 08:00:23;;;;;;;4.90;1.95;;;;;;;15.68;89.59;102864.13;4993390;28;20277;-83
2023/05/19 08:03:08;;;;;;;3.70;1.92;;;;;;;15.63;89.68;102852.75;4981549;28;20064;-81
2023/05/19 08:05:52;;;;;;;6.53;2.10;;;;;;;15.56;88.01;102850.28;4978079;28;20044;-82
2023/05/19 08:08:36;;;;;;;5.25;2.22;;;;;;;15.55;88.28;102850.31;4992516;28;20108;-78
2023/05/19 08:11:20;;;;;;;3.10;1.95;;;;;;;15.52;86.29;102840.63;4992771;28;20056;-82
2023/05/19 08:14:05;;;;;;;3.67;2.15;;;;;;;15.58;87.85;102851.09;4979678;28;20052;-85
2023/05/19 08:16:49;;;;;;;4.32;2.03;;;;;;;15.61;88.66;102840.31;4997104;28;20052;-85
2023/05/19 08:19:33;;;;;;;4.47;2.10;;;;;;;15.66;86.84;102829.47;4981545;28;20040;-85
2023/05/19 08:22:17;;;;;;;3.85;2.10;;;;;;;15.56;85.06;102841.38;4979855;28;20072;-85
2023/05/19 08:25:04;;;;;;;4.38;2.15;;;;;;;15.48;85.10;102831.00;4979717;28;20155;-86
2023/05/19 08:27:48;;;;;;;5.35;2.25;;;;;;;15.52;85.67;102834.44;4982639;28;20247;-83
2023/05/19 08:30:32;;;;;;;3.15;2.03;;;;;;;15.72;86.79;102837.28;5000646;28;20555;-86
2023/05/19 08:33:16;;;;;;;3.65;2.17;;;;;;;15.82;84.68;102827.13;5008964;28;20064;-91
2023/05/19 08:36:00;;;;;;;9.23;2.38;;;;;;;15.93;84.63;102831.22;4999011;28;20076;-93
2023/05/19 08:38:45;;;;;;;5.25;2.05;;;;;;;15.93;81.42;102825.88;4990183;28;20069;-88
2023/05/19 08:41:29;;;;;;;5.38;2.40;;;;;;;15.92;79.80;102819.69;4976713;28;20069;-93
2023/05/19 08:44:13;;;;;;;4.55;2.22;;;;;;;15.82;79.85;102823.56;5006264;28;20049;-86
2023/05/19 08:47:00;;;;;;;4.32;1.90;;;;;;;15.86;78.45;102814.53;4993225;28;20409;-85
2023/05/19 08:49:45;;;;;;;5.03;2.47;;;;;;;15.95;81.91;102814.22;4979865;28;20594;-86
2023/05/19 08:52:41;;;;;;;3.20;1.90;;;;;;;16.14;78.76;102809.06;4968593;28;20125;-90
2023/05/19 08:55:34;;;;;;;4.35;2.13;;;;;;;16.34;81.40;102807.41;5006300;28;20436;-83
2023/05/19 08:58:21;;;;;;;4.88;2.40;;;;;;;16.45;80.33;102800.78;4995084;28;20799;-84
2023/05/19 09:01:10;;;;;;;3.70;2.22;;;;;;;16.50;79.98;102790.78;5010318;28;20702;-86
2023/05/19 09:03:54;;;;;;;3.05;2.05;;;;;;;16.64;79.26;102792.91;4967167;28;20185;-85
2023/05/19 09:06:41;;;;;;;4.53;2.25;;;;;;;16.76;77.38;102796.88;5009557;28;20052;-84
2023/05/19 09:09:25;;;;;;;4.15;2.03;;;;;;;16.69;77.14;102790.91;4970284;28;20041;-86
2023/05/19 09:12:10;;;;;;;2.92;2.20;;;;;;;16.60;77.18;102791.31;4987099;28;20057;-89
2023/05/19 09:14:57;;;;;;;3.53;2.10;;;;;;;16.59;74.44;102782.41;4986933;28;20072;-89
2023/05/19 09:17:43;;;;;;;4.47;2.10;;;;;;;16.63;76.46;102786.69;4989297;28;20248;-86
2023/05/19 09:20:29;;;;;;;4.65;2.30;;;;;;;16.75;78.12;102782.66;4998511;28;20060;-86
2023/05/19 09:23:15;;;;;;;4.10;2.20;;;;;;;16.89;76.52;102784.72;4979806;28;21071;-86
2023/05/19 09:26:05;;;;;;;3.65;2.28;;;;;;;17.00;75.27;102783.44;4963578;28;22070;-83
2023/05/19 09:28:50;;;;;;;4.03;2.10;;;;;;;17.15;75.50;102789.97;4975207;28;20064;-80
2023/05/19 09:31:34;;;;;;;5.47;2.30;;;;;;;17.15;73.85;102781.94;4991098;28;20048;-86
2023/05/19 09:34:23;;;;;;;5.28;2.30;;;;;;;17.10;72.74;102782.13;4984709;28;20276;-86
2023/05/19 09:37:08;;;;;;;6.22;2.47;;;;;;;17.14;73.90;102786.41;4995751;28;22403;-85
2023/05/19 09:39:52;;;;;;;5.38;2.40;;;;;;;17.13;71.08;102779.34;4954552;28;20141;-82
2023/05/19 09:42:37;;;;;;;3.22;2.17;;;;;;;17.00;69.64;102783.44;4975337;28;20171;-86
2023/05/19 09:45:21;;;;;;;3.78;2.33;;;;;;;16.96;69.52;102769.31;4975222;28;20747;-85
2023/05/19 09:48:06;;;;;;;4.80;2.30;;;;;;;17.10;69.23;102772.31;5004353;28;20054;-92
2023/05/19 09:50:51;;;;;;;4.95;2.00;;;;;;;17.17;69.45;102775.56;4988247;28;20205;-89
2023/05/19 09:53:36;;;;;;;5.07;2.45;;;;;;;17.32;67.64;102773.19;4991196;28;20185;-89
2023/05/19 09:56:22;;;;;;;5.05;2.33;;;;;;;17.30;66.90;102769.69;4994122;28;20044;-89
2023/05/19 09:59:07;;;;;;;3.85;2.20;;;;;;;17.17;67.24;102777.41;4990571;28;20080;-88
2023/05/19 10:01:55;;;;;;;3.92;2.00;;;;;;;16.87;66.89;102783.06;4988294;28;20187;-90
2023/05/19 10:04:43;;;;;;;6.22;2.50;;;;;;;16.78;65.14;102768.28;4991575;28;20147;-90
2023/05/19 10:07:28;;;;;;;2.78;2.28;;;;;;;16.68;68.33;102768.63;5005989;28;20053;-93
2023/05/19 10:10:12;;;;;;;4.63;2.63;;;;;;;16.75;67.19;102763.03;5002947;28;20108;-90
2023/05/19 10:12:57;;;;;;;2.65;2.22;;;;;;;16.75;68.44;102758.56;4991668;28;20549;-92
2023/05/19 10:15:42;;;;;;;4.20;2.58;;;;;;;16.72;67.70;102755.16;4992476;28;20373;-93
2023/05/19 10:18:28;;;;;;;4.28;2.38;;;;;;;16.70;67.44;102761.44;5011062;28;20547;-93
2023/05/19 10:21:15;;;;;;;4.53;2.67;;;;;;;16.68;64.91;102757.94;4990398;28;20140;-85
2023/05/19 10:23:59;;;;;;;2.88;2.10;;;;;;;16.76;67.50;102746.94;4978877;28;20052;-91
2023/05/19 10:26:52;;;;;;;5.15;2.45;;;;;;;16.89;64.19;102747.28;4979962;28;21005;-85
2023/05/19 10:29:43;;;;;;;3.83;2.30;;;;;;;16.92;65.13;102755.19;4973703;28;20594;-91
2023/05/19 10:32:31;;;;;;;4.93;2.88;;;;;;;17.01;64.58;102748.59;4990305;28;20331;-92
2023/05/19 10:35:36;;;;;;;4.55;2.30;;;;;;;17.07;64.33;102750.16;4991995;28;20142;-90
2023/05/19 10:38:33;;;;;;;6.60;3.30;;;;;;;17.14;66.01;102753.41;5000185;28;20050;-91
2023/05/19 10:41:21;;;;;;;5.30;3.17;;;;;;;17.01;66.20;102747.72;4985887;28;20142;-90
2023/05/19 10:44:16;;;;;;;6.65;3.05;;;;;;;16.87;64.12;102737.56;4989716;28;20049;-89
2023/05/19 10:47:01;;;;;;;3.88;2.88;;;;;;;16.80;66.88;102740.53;4977320;28;20057;-90
2023/05/19 10:49:45;;;;;;;4.55;2.60;;;;;;;16.85;66.79;102743.03;4997428;28;20225;-82
2023/05/19 10:52:43;;;;;;;6.47;2.70;;;;;;;16.82;65.18;102738.66;4991004;28;22252;-92
2023/05/19 10:55:57;;;;;;;5.82;2.42;;;;;;;16.84;62.57;102741.28;4999521;28;20068;-88
2023/05/19 10:58:45;;;;;;;4.63;2.90;;;;;;;16.90;65.29;102735.69;5000868;28;20176;-89
2023/05/19 11:01:32;;;;;;;6.38;2.83;;;;;;;17.00;63.83;102741.47;5001996;28;21762;-86
2023/05/19 11:04:17;;;;;;;2.75;2.22;;;;;;;16.93;63.21;102727.50;4981110;28;20064;-89
2023/05/19 11:07:02;;;;;;;3.80;2.58;;;;;;;16.83;62.01;102728.81;5005394;28;22002;-88
2023/05/19 11:09:53;;;;;;;4.53;2.53;;;;;;;16.66;61.60;102717.03;4974758;28;20057;-88
2023/05/19 11:12:42;;;;;;;6.80;2.30;;;;;;;16.67;62.54;102729.47;4995943;28;20077;-82
2023/05/19 11:15:26;;;;;;;5.82;2.42;;;;;;;16.73;63.58;102722.13;4989954;28;20053;-83
2023/05/19 11:18:14;;;;;;;6.32;2.30;;;;;;;16.76;61.99;102732.69;4982844;28;20039;-88
2023/05/19 11:21:01;;;;;;;5.38;2.60;;;;;;;16.71;61.54;102727.53;4971373;28;20084;-87
2023/05/19 11:23:45;;;;;;;4.55;2.50;;;;;;;16.82;61.39;102729.75;4984966;28;20061;-88
2023/05/19 11:26:42;;;;;;;2.75;2.20;;;;;;;16.84;59.48;102719.88;4975352;28;20069;-84
2023/05/19 11:29:29;;;;;;;4.13;2.67;;;;;;;17.00;61.30;102719.22;4981523;28;20049;-84
2023/05/19 11:32:14;;;;;;;3.83;2.22;;;;;;;17.16;62.05;102714.09;4986609;28;20084;-89
2023/05/19 11:35:01;;;;;;;3.40;2.58;;;;;;;17.19;60.43;102717.53;5004411;28;20417;-90
2023/05/19 11:37:46;;;;;;;4.80;2.55;;;;;;;17.09;62.13;102717.06;4988358;28;20076;-93
2023/05/19 11:40:31;;;;;;;4.13;2.40;;;;;;;17.04;62.24;102711.03;5007489;28;20172;-93
2023/05/19 11:43:15;;;;;;;4.38;2.67;;;;;;;17.03;62.95;102711.97;5006471;28;20087;-91
2023/05/19 11:46:00;;;;;;;5.32;2.53;;;;;;;16.96;62.90;102710.47;5009289;28;20052;-91
2023/05/19 11:48:46;;;;;;;3.97;2.40;;;;;;;16.88;62.93;102712.59;4986521;28;20091;-91
2023/05/19 11:51:33;;;;;;;5.97;2.55;;;;;;;16.89;62.58;102701.81;4997015;28;20068;-88
2023/05/19 11:54:18;;;;;;;6.75;2.67;;;;;;;16.92;63.32;102707.03;4995668;28;20057;-89
2023/05/19 11:57:02;;;;;;;3.50;2.72;;;;;;;16.84;64.05;102714.53;4968752;28;20057;-91
2023/05/19 11:59:48;;;;;;;3.65;2.20;;;;;;;16.92;63.91;102704.38;5002332;28;20052;-90
2023/05/19 12:02:35;;;;;;;5.90;2.45;;;;;;;16.88;61.13;102710.78;4992132;28;21396;-91
2023/05/19 12:05:24;;;;;;;5.25;2.45;;;;;;;16.72;62.15;102699.84;4987578;28;20068;-90
2023/05/19 12:08:10;;;;;;;2.95;2.22;;;;;;;16.72;62.58;102702.53;4980656;28;20044;-91
2023/05/19 12:10:58;;;;;;;5.55;2.38;;;;;;;16.65;62.09;102706.41;4994115;28;20041;-90
2023/05/19 12:13:43;;;;;;;4.65;2.70;;;;;;;16.58;61.86;102695.09;4989582;28;20040;-90
2023/05/19 12:16:34;;;;;;;3.95;2.45;;;;;;;16.52;60.28;102706.91;5008291;28;20049;-89
2023/05/19 12:19:18;;;;;;;3.08;2.10;;;;;;;16.52;62.92;102708.72;4986561;28;20107;-83
2023/05/19 12:22:02;;;;;;;5.40;2.10;;;;;;;16.69;63.12;102708.88;4990951;28;20097;-90
2023/05/19 12:24:47;;;;;;;3.55;2.10;;;;;;;16.82;63.58;102705.69;4990108;28;20052;-89
2023/05/19 12:27:34;;;;;;;3.80;2.30;;;;;;;16.88;60.17;102701.91;4962055;28;20678;-84
2023/05/19 12:30:27;;;;;;;5.75;2.20;;;;;;;16.78;61.17;102706.78;4986882;28;20049;-86
2023/05/19 12:33:14;;;;;;;4.68;2.15;;;;;;;16.77;61.89;102702.34;4999071;28;20080;-84
2023/05/19 12:36:01;;;;;;;3.70;1.90;;;;;;;16.89;63.91;102696.47;4985810;28;20045;-86
2023/05/19 12:38:46;;;;;;;4.55;2.22;;;;;;;16.96;61.82;102697.94;4995442;28;20124;-87
2023/05/19 12:41:37;;;;;;;6.13;2.78;;;;;;;16.98;63.09;102697.88;4999748;28;20684;-87
2023/05/19 12:44:24;;;;;;;3.03;2.22;;;;;;;17.12;63.05;102696.44;4974840;28;20049;-86
2023/05/19 12:47:10;;;;;;;4.38;2.20;;;;;;;17.15;62.64;102688.28;4984494;28;20053;-85
2023/05/19 12:49:58;;;;;;;3.38;2.25;;;;;;;17.19;61.34;102687.19;4984655;28;20060;-88